»·PEaware :: N33EB KBFL-KMHV

N33EB :: KBFL-KMHV

FLIGHT INFORMATION

Flight Status: Arrived
Operator: Privately registered:
United States
More flights under this callsign
Pilot: Steve A. (15920)
Aircraft: PIPER PA-28 CHEROKEE ARCHER
(P28A)
More flights by this aircraft type
Origin: KBFL Meadows
United States
Destination: KMHV Mojave
United States
More flights between these airports :: More routes between these airports
Route: +
File this flight plan on PilotEdge
Remarks:
Altitude:
(Current/Filed)
7,500ft
Speed:
(Current/Filed)
0kts
Departed: 20-Sep-18 09:04 PM
Arrived: 20-Sep-18 09:41 PM
Distance/Time
Traveled:
50nm/0:37
Distance/Time
To Go:
Arrived

Flight Plot

Page will automatically refresh every two minutes.


Map Options




Map Legend


Flown Route
Filed Route
Departure Airport
Arrival Airport
Navaid (VOR, NDB)
Fix

Horizontal Profiles

Position Reports

Time Latitude Longitude Heading Altitude Ground
Speed
20-Sep-18 20:55 35.435677 -119.052044 180 501ft 0kts
20-Sep-18 20:56 35.435677 -119.052044 180 501ft 0kts
20-Sep-18 20:57 35.435642 -119.052049 193 501ft 3kts
20-Sep-18 20:58 35.435487 -119.052768 271 498ft 1kts
20-Sep-18 20:59 35.435021 -119.053946 223 495ft 0kts
20-Sep-18 21:00 35.434344 -119.054501 151 493ft 13kts
20-Sep-18 21:01 35.430819 -119.050306 134 492ft 18kts
20-Sep-18 21:02 35.427567 -119.046379 133 485ft 14kts
20-Sep-18 21:03 35.425476 -119.044456 260 481ft 0kts
20-Sep-18 21:04 35.425575 -119.044596 315 481ft 7kts
20-Sep-18 21:05 35.425654 -119.044791 243 481ft 0kts
20-Sep-18 21:06 35.431154 -119.052860 314 720ft 71kts
20-Sep-18 21:07 35.445437 -119.062338 40 1585ft 82kts
20-Sep-18 21:08 35.433238 -119.041585 138 2568ft 81kts
20-Sep-18 21:09 35.419337 -119.019611 127 3491ft 81kts
20-Sep-18 21:10 35.408408 -118.994720 116 4346ft 84kts
20-Sep-18 21:11 35.397938 -118.968836 116 5182ft 88kts
20-Sep-18 21:12 35.387101 -118.941645 117 5986ft 89kts
20-Sep-18 21:13 35.376206 -118.914084 118 6745ft 90kts
20-Sep-18 21:14 35.365324 -118.886331 118 7375ft 100kts
20-Sep-18 21:15 35.352182 -118.853813 119 7466ft 110kts
20-Sep-18 21:16 35.339245 -118.818428 114 7365ft 119kts
20-Sep-18 21:17 35.327215 -118.783408 114 7278ft 109kts
20-Sep-18 21:18 35.315995 -118.750388 114 7321ft 98kts
20-Sep-18 21:19 35.306258 -118.721374 114 7497ft 91kts
20-Sep-18 21:20 35.296370 -118.692081 114 7540ft 98kts
20-Sep-18 21:21 35.285323 -118.659867 114 7467ft 101kts
20-Sep-18 21:22 35.274154 -118.630061 125 7562ft 96kts
20-Sep-18 21:23 35.258192 -118.602617 127 7541ft 101kts
20-Sep-18 21:24 35.241873 -118.574803 127 7534ft 101kts
20-Sep-18 21:25 35.225452 -118.546862 127 7528ft 100kts
20-Sep-18 21:26 35.209591 -118.519872 127 7607ft 96kts
20-Sep-18 21:27 35.193661 -118.493876 129 7679ft 95kts
20-Sep-18 21:28 35.175157 -118.465125 130 7628ft 115kts
20-Sep-18 21:29 35.155567 -118.434802 130 7518ft 112kts
20-Sep-18 21:30 35.136272 -118.404991 130 7418ft 112kts
20-Sep-18 21:31 35.117073 -118.375362 130 7207ft 112kts
20-Sep-18 21:32 35.106088 -118.343764 109 6863ft 112kts
20-Sep-18 21:33 35.097113 -118.309377 109 6432ft 108kts
20-Sep-18 21:34 35.088016 -118.274412 109 5850ft 108kts
20-Sep-18 21:35 35.083000 -118.238465 82 5277ft 108kts
20-Sep-18 21:36 35.089113 -118.205202 71 5007ft 97kts
20-Sep-18 21:37 35.097708 -118.175296 69 4782ft 94kts
20-Sep-18 21:38 35.106881 -118.146156 69 4525ft 91kts
20-Sep-18 21:39 35.106024 -118.120474 176 4255ft 78kts
20-Sep-18 21:40 35.083808 -118.120405 184 3873ft 80kts
20-Sep-18 21:41 35.063436 -118.124031 216 3343ft 72kts
20-Sep-18 21:42 35.059200 -118.145403 269 2744ft 50kts
20-Sep-18 21:43 35.059182 -118.156583 272 2769ft 24kts
20-Sep-18 21:44 35.058363 -118.157789 177 2769ft 0kts
20-Sep-18 21:45 35.057592 -118.156278 119 2765ft 13kts
20-Sep-18 21:46 35.056861 -118.156149 177 2763ft 0kts

Navigation Log

Ident Type
1. KBFL Airport
2. KMHV Airport